createdAt,value
2019-02-12T00:01:53.172Z,4.91
2019-02-12T00:04:23.072Z,4.92
2019-02-12T00:06:53.000Z,4.94
2019-02-12T00:09:22.919Z,4.95
2019-02-12T00:11:52.856Z,5.04
2019-02-12T00:14:22.768Z,4.90
2019-02-12T00:16:52.668Z,4.90
2019-02-12T00:19:22.681Z,5.19
2019-02-12T00:21:52.656Z,4.95
2019-02-12T00:24:22.615Z,4.92
2019-02-12T00:26:52.578Z,4.95
2019-02-12T00:29:22.566Z,4.95
2019-02-12T00:31:52.562Z,4.93
2019-02-12T00:34:22.560Z,5.05
2019-02-12T00:36:52.474Z,4.94
2019-02-12T00:39:22.404Z,4.84
2019-02-12T00:41:52.334Z,4.83
2019-02-12T00:44:22.678Z,5.05
2019-02-12T00:46:52.735Z,4.89
2019-02-12T00:49:23.050Z,5.09
2019-02-12T00:51:52.977Z,4.87
2019-02-12T00:54:24.228Z,4.95
2019-02-12T00:56:55.192Z,4.92
2019-02-12T00:59:25.124Z,4.99
2019-02-12T01:01:55.335Z,4.68
2019-02-12T01:04:25.290Z,4.81
2019-02-12T01:06:55.495Z,4.77
2019-02-12T01:09:26.232Z,4.71
2019-02-12T01:11:56.353Z,4.55
2019-02-12T01:14:26.615Z,4.61
2019-02-12T01:16:56.588Z,4.98
2019-02-12T01:19:26.534Z,4.61
2019-02-12T01:21:56.458Z,4.52
2019-02-12T01:24:26.384Z,4.62
2019-02-12T01:26:56.867Z,4.45
2019-02-12T01:29:26.973Z,4.57
2019-02-12T01:31:57.016Z,4.76
2019-02-12T01:34:26.977Z,4.96
2019-02-12T01:36:56.944Z,4.87
2019-02-12T01:39:27.114Z,4.92
2019-02-12T01:41:57.591Z,4.74
2019-02-12T01:44:27.543Z,4.75
2019-02-12T01:46:57.438Z,4.77
2019-02-12T01:49:27.439Z,4.41
2019-02-12T01:51:57.769Z,4.67
2019-02-12T01:54:28.086Z,4.78
2019-02-12T01:56:58.308Z,4.96
2019-02-12T01:59:28.208Z,4.81
2019-02-12T02:01:58.138Z,5.02
2019-02-12T02:04:28.367Z,4.75
2019-02-12T02:06:58.303Z,4.92
2019-02-12T02:09:28.608Z,5.03
2019-02-12T02:11:58.527Z,4.67
2019-02-12T02:14:28.440Z,4.78
2019-02-12T02:16:58.387Z,4.78
2019-02-12T02:19:28.295Z,4.59
2019-02-12T02:21:58.215Z,4.93
2019-02-12T02:24:28.117Z,4.98
2019-02-12T02:26:58.326Z,4.92
2019-02-12T02:29:28.242Z,4.97
2019-02-12T02:31:58.582Z,4.73
2019-02-12T02:34:28.534Z,4.84
2019-02-12T02:36:58.462Z,4.47
2019-02-12T02:39:28.376Z,4.59
2019-02-12T02:41:58.333Z,4.74
2019-02-12T02:44:28.239Z,4.70
2019-02-12T02:46:58.161Z,4.42
2019-02-12T02:49:28.711Z,4.49
2019-02-12T02:51:58.680Z,4.52
2019-02-12T02:54:28.669Z,4.85
2019-02-12T02:56:58.622Z,4.87
2019-02-12T02:59:28.593Z,4.63
2019-02-12T03:01:58.540Z,4.73
2019-02-12T03:04:28.514Z,4.80
2019-02-12T03:06:58.431Z,4.79
2019-02-12T03:09:28.512Z,4.84
2019-02-12T03:11:58.453Z,4.55
2019-02-12T03:14:28.356Z,4.62
2019-02-12T03:16:58.282Z,4.68
2019-02-12T03:19:28.562Z,4.62
2019-02-12T03:22:03.602Z,4.49
2019-02-12T03:24:30.133Z,4.72
2019-02-12T03:27:00.147Z,4.57
2019-02-12T03:29:30.053Z,4.22
2019-02-12T03:32:00.334Z,4.46
2019-02-12T03:34:30.303Z,4.28
2019-02-12T03:37:00.224Z,4.43
2019-02-12T03:39:30.150Z,4.56
2019-02-12T03:42:00.520Z,4.66
2019-02-12T03:44:31.034Z,4.51
2019-02-12T03:47:01.031Z,4.31
2019-02-12T03:49:31.194Z,4.35
2019-02-12T03:52:01.103Z,4.44
2019-02-12T03:54:31.077Z,4.44
2019-02-12T03:57:01.328Z,4.41
2019-02-12T03:59:31.408Z,4.39
2019-02-12T04:02:01.682Z,4.49
2019-02-12T04:04:31.728Z,4.62
2019-02-12T04:07:01.646Z,4.52
2019-02-12T04:09:31.616Z,4.35
2019-02-12T04:12:01.568Z,4.42
2019-02-12T04:14:31.947Z,4.62
2019-02-12T04:17:01.847Z,4.67
2019-02-12T04:19:31.763Z,4.53
2019-02-12T04:22:01.695Z,4.31
2019-02-12T04:24:31.638Z,4.48
2019-02-12T04:27:01.632Z,4.40
2019-02-12T04:29:31.751Z,4.39
2019-02-12T04:32:02.290Z,4.55
2019-02-12T04:34:32.237Z,4.50
2019-02-12T04:37:02.195Z,4.58
2019-02-12T04:39:32.183Z,4.68
2019-02-12T04:42:02.360Z,4.54
2019-02-12T04:44:32.344Z,4.40
2019-02-12T04:47:02.297Z,4.43
2019-02-12T04:49:32.316Z,4.57
2019-02-12T04:52:02.311Z,4.49
2019-02-12T04:54:32.238Z,4.39
2019-02-12T04:57:02.237Z,4.47
2019-02-12T04:59:32.142Z,4.66
2019-02-12T05:02:02.261Z,4.56
2019-02-12T05:04:32.624Z,4.57
2019-02-12T05:07:02.535Z,4.57
2019-02-12T05:09:33.939Z,4.65
2019-02-12T05:12:06.513Z,4.37
2019-02-12T05:14:36.440Z,4.46
2019-02-12T05:17:06.776Z,4.48
2019-02-12T05:19:36.759Z,4.60
2019-02-12T05:22:06.663Z,4.56
2019-02-12T05:24:36.817Z,4.58
2019-02-12T05:27:06.745Z,4.43
2019-02-12T05:29:36.721Z,4.50
2019-02-12T05:32:06.653Z,4.66
2019-02-12T05:34:36.613Z,4.78
2019-02-12T05:37:06.594Z,4.71
2019-02-12T05:39:36.608Z,4.73
2019-02-12T05:42:06.849Z,4.70
2019-02-12T05:44:36.766Z,4.81
2019-02-12T05:47:07.057Z,4.76
2019-02-12T05:49:37.073Z,4.45
2019-02-12T05:52:07.278Z,4.68
2019-02-12T05:54:37.311Z,4.58
2019-02-12T05:57:07.536Z,4.68
2019-02-12T05:59:37.471Z,4.84
2019-02-12T06:02:07.527Z,4.72
2019-02-12T06:04:37.776Z,4.98
2019-02-12T06:07:08.130Z,5.13
2019-02-12T06:09:38.051Z,4.57
2019-02-12T06:12:07.986Z,5.04
2019-02-12T06:14:38.566Z,4.83
2019-02-12T06:17:08.905Z,5.25
2019-02-12T06:19:38.833Z,5.24
2019-02-12T06:22:08.783Z,5.14
2019-02-12T06:24:38.720Z,5.03
2019-02-12T06:27:08.971Z,5.08
2019-02-12T06:29:39.604Z,5.04
2019-02-12T06:32:09.579Z,5.16
2019-02-12T06:34:39.781Z,4.70
2019-02-12T06:37:09.788Z,4.81
2019-02-12T06:39:39.881Z,4.72
2019-02-12T06:42:09.806Z,4.62
2019-02-12T06:44:39.862Z,5.19
2019-02-12T06:47:10.111Z,4.84
2019-02-12T06:49:40.467Z,4.83
2019-02-12T06:52:10.425Z,4.85
2019-02-12T06:54:40.400Z,5.22
2019-02-12T06:57:10.340Z,5.30
2019-02-12T06:59:40.427Z,5.03
2019-02-12T07:03:15.183Z,5.11
2019-02-12T07:05:56.768Z,5.30
2019-02-12T07:08:56.605Z,5.17
2019-02-12T07:12:01.984Z,5.32
2019-02-12T07:14:58.320Z,5.26
2019-02-12T07:18:45.475Z,5.09
2019-02-12T07:21:50.420Z,5.41
2019-02-12T07:24:47.282Z,5.26
2019-02-12T07:28:03.861Z,5.01
2019-02-12T07:31:24.218Z,5.04
2019-02-12T07:34:57.924Z,5.44
2019-02-12T07:37:59.993Z,5.77
2019-02-12T07:41:07.183Z,5.51
2019-02-12T07:44:14.144Z,5.65
2019-02-12T07:47:29.982Z,5.65
2019-02-12T07:50:44.518Z,5.48
2019-02-12T07:53:48.831Z,5.52
2019-02-12T07:57:02.899Z,5.75
2019-02-12T08:00:12.139Z,5.49
2019-02-12T08:03:31.307Z,5.92
2019-02-12T08:07:03.602Z,5.60
2019-02-12T08:10:43.899Z,5.47
2019-02-12T08:13:58.384Z,5.47
2019-02-12T08:17:09.991Z,5.37
2019-02-12T08:20:37.324Z,5.36
2019-02-12T08:24:01.059Z,5.34
2019-02-12T08:27:15.470Z,5.09
2019-02-12T08:30:09.261Z,5.17
2019-02-12T08:33:42.008Z,5.04
2019-02-12T08:37:04.258Z,5.27
2019-02-12T08:40:11.832Z,5.57
2019-02-12T08:43:16.996Z,5.36
2019-02-12T08:46:53.531Z,5.42
2019-02-12T08:49:54.913Z,5.19
2019-02-12T08:53:22.584Z,5.66
2019-02-12T08:56:17.993Z,5.69
2019-02-12T08:59:39.548Z,5.57
2019-02-12T09:02:53.315Z,5.64
2019-02-12T09:05:41.671Z,5.85
2019-02-12T09:09:23.459Z,5.16
2019-02-12T09:12:39.399Z,5.48
2019-02-12T09:16:05.181Z,5.47
2019-02-12T09:18:52.482Z,5.52
2019-02-12T09:22:01.510Z,5.43
2019-02-12T09:25:23.300Z,5.52
2019-02-12T09:28:40.457Z,5.45
2019-02-12T09:31:53.768Z,5.73
2019-02-12T09:35:26.759Z,5.40
2019-02-12T09:38:50.099Z,5.43
2019-02-12T09:42:21.022Z,5.61
2019-02-12T09:45:35.893Z,5.82
2019-02-12T09:48:33.782Z,5.84
2019-02-12T09:51:49.479Z,5.52
2019-02-12T09:54:58.382Z,5.41
2019-02-12T09:58:30.589Z,5.78
2019-02-12T10:01:18.976Z,5.84
2019-02-12T10:04:59.045Z,6.01
2019-02-12T10:08:17.351Z,6.19
2019-02-12T10:11:21.240Z,6.33
2019-02-12T10:14:28.789Z,6.07
2019-02-12T10:17:22.480Z,6.06
2019-02-12T10:20:27.966Z,5.88
2019-02-12T10:23:51.877Z,5.99
2019-02-12T10:26:22.016Z,5.83
2019-02-12T10:29:22.238Z,6.04
2019-02-12T10:31:50.235Z,6.07
2019-02-12T10:34:20.218Z,5.96
2019-02-12T10:36:50.419Z,5.95
2019-02-12T10:39:20.808Z,6.12
2019-02-12T10:41:50.891Z,5.94
2019-02-12T10:44:21.161Z,5.81
2019-02-12T10:46:51.251Z,5.56
2019-02-12T10:49:21.881Z,5.44
2019-02-12T10:51:52.196Z,5.87
2019-02-12T10:54:27.894Z,6.01
2019-02-12T10:56:54.624Z,5.98
2019-02-12T10:59:24.746Z,5.84
2019-02-12T11:01:54.817Z,5.77
2019-02-12T11:04:25.007Z,5.94
2019-02-12T11:06:55.357Z,5.81
2019-02-12T11:09:26.737Z,5.85
2019-02-12T11:11:56.756Z,6.05
2019-02-12T11:14:29.914Z,5.96
2019-02-12T11:17:00.048Z,6.50
2019-02-12T11:19:30.037Z,6.32
2019-02-12T11:22:02.541Z,6.36
2019-02-12T11:24:35.586Z,6.11
2019-02-12T11:27:04.259Z,6.18
2019-02-12T11:29:34.431Z,6.59
2019-02-12T11:32:04.437Z,6.84
2019-02-12T11:34:34.560Z,6.59
2019-02-12T11:37:04.808Z,6.44
2019-02-12T11:39:34.903Z,6.84
2019-02-12T11:42:04.976Z,7.16
2019-02-12T11:44:35.110Z,7.05
2019-02-12T11:47:05.039Z,6.95
2019-02-12T11:49:35.001Z,6.46
2019-02-12T11:52:05.435Z,6.45
2019-02-12T11:54:43.436Z,6.35
2019-02-12T11:57:07.413Z,6.38
2019-02-12T11:59:37.510Z,6.14
2019-02-12T12:02:07.884Z,6.19
2019-02-12T12:04:37.826Z,6.34
2019-02-12T12:07:08.740Z,6.65
2019-02-12T12:09:38.719Z,6.26
2019-02-12T12:12:09.190Z,6.51
2019-02-12T12:14:39.190Z,6.43
2019-02-12T12:17:09.175Z,6.25
2019-02-12T12:19:39.147Z,6.92
2019-02-12T12:22:09.107Z,7.04
2019-02-12T12:24:41.509Z,7.10
2019-02-12T12:27:11.389Z,6.85
2019-02-12T12:29:41.779Z,7.24
2019-02-12T12:32:11.844Z,7.23
2019-02-12T12:34:41.801Z,7.24
2019-02-12T12:37:11.900Z,7.31
2019-02-12T12:39:42.115Z,7.27
2019-02-12T12:42:12.437Z,7.18
2019-02-12T12:44:42.467Z,7.35
2019-02-12T12:47:13.079Z,7.00
2019-02-12T12:49:43.443Z,6.60
2019-02-12T12:52:13.381Z,6.38
2019-02-12T12:54:43.400Z,6.45
2019-02-12T12:57:13.615Z,6.79
2019-02-12T12:59:43.547Z,6.30
2019-02-12T13:02:13.493Z,6.49
2019-02-12T13:04:44.085Z,6.54
2019-02-12T13:07:14.059Z,6.33
2019-02-12T13:09:43.985Z,6.53
2019-02-12T13:12:13.997Z,6.06
2019-02-12T13:14:44.052Z,6.01
2019-02-12T13:17:14.065Z,5.90
2019-02-12T13:19:43.974Z,6.21
2019-02-12T13:22:14.307Z,6.23
2019-02-12T13:24:44.304Z,6.29
2019-02-12T13:27:14.214Z,6.25
2019-02-12T13:29:44.452Z,6.51
2019-02-12T13:32:14.452Z,6.33
2019-02-12T13:34:44.472Z,6.02
2019-02-12T13:37:14.412Z,6.51
2019-02-12T13:39:44.376Z,6.17
2019-02-12T13:42:14.322Z,6.47
2019-02-12T13:44:44.835Z,6.32
2019-02-12T13:47:15.095Z,6.48
2019-02-12T13:49:45.068Z,6.38
2019-02-12T13:52:15.091Z,6.16
2019-02-12T13:54:45.033Z,6.02
2019-02-12T13:57:15.055Z,6.13
2019-02-12T13:59:45.352Z,6.22
2019-02-12T14:02:15.328Z,6.46
2019-02-12T14:04:45.374Z,6.30
2019-02-12T14:07:15.355Z,6.31
2019-02-12T14:09:45.331Z,6.19
2019-02-12T14:12:15.854Z,6.45
2019-02-12T14:14:45.878Z,6.59
2019-02-12T14:17:15.867Z,6.39
2019-02-12T14:19:45.842Z,6.68
2019-02-12T14:22:15.790Z,6.35
2019-02-12T14:24:45.903Z,6.45
2019-02-12T14:27:16.300Z,6.92
2019-02-12T14:29:46.328Z,7.11
2019-02-12T14:32:16.525Z,7.04
2019-02-12T14:34:46.439Z,7.01
2019-02-12T14:37:16.476Z,6.96
2019-02-12T14:39:46.834Z,6.83
2019-02-12T14:42:16.878Z,6.95
2019-02-12T14:44:46.817Z,6.44
2019-02-12T14:47:16.974Z,6.67
2019-02-12T14:49:47.007Z,6.63
2019-02-12T14:52:17.039Z,7.28
2019-02-12T14:54:47.175Z,7.34
2019-02-12T14:57:17.175Z,7.35
2019-02-12T14:59:47.367Z,6.81
2019-02-12T15:02:17.373Z,6.44
2019-02-12T15:04:47.497Z,6.46
2019-02-12T15:07:17.697Z,6.54
2019-02-12T15:09:48.286Z,6.73
2019-02-12T15:12:18.672Z,6.92
2019-02-12T15:14:48.726Z,6.43
2019-02-12T15:17:18.751Z,6.69
2019-02-12T15:19:48.893Z,7.02
2019-02-12T15:22:19.075Z,7.30
2019-02-12T15:24:49.542Z,7.69
2019-02-12T15:27:19.483Z,7.55
2019-02-12T15:29:49.547Z,7.51
2019-02-12T15:32:19.926Z,7.38
2019-02-12T15:34:50.048Z,7.17
2019-02-12T15:37:20.040Z,6.90
2019-02-12T15:39:49.986Z,7.19
2019-02-12T15:42:20.024Z,7.05
2019-02-12T15:44:49.969Z,7.00
2019-02-12T15:47:19.901Z,7.02
2019-02-12T15:49:49.829Z,7.18
2019-02-12T15:52:19.767Z,7.02
2019-02-12T15:54:50.935Z,7.35
2019-02-12T15:57:22.559Z,7.37
2019-02-12T15:59:54.077Z,7.32
2019-02-12T16:02:24.780Z,7.39
2019-02-12T16:04:54.805Z,7.47
2019-02-12T16:07:24.734Z,7.57
2019-02-12T16:09:56.566Z,6.99
2019-02-12T16:12:28.490Z,7.19
2019-02-12T16:14:59.657Z,6.97
2019-02-12T16:17:30.510Z,7.18
2019-02-12T16:20:00.549Z,6.99
2019-02-12T16:22:30.842Z,7.12
2019-02-12T16:25:01.074Z,7.50
2019-02-12T16:27:31.029Z,7.28
2019-02-12T16:30:01.199Z,7.16
2019-02-12T16:32:31.527Z,7.25
2019-02-12T16:35:01.827Z,7.20
2019-02-12T16:37:31.799Z,7.00
2019-02-12T16:40:01.748Z,7.23
2019-02-12T16:42:31.708Z,7.23
2019-02-12T16:45:01.882Z,7.32
2019-02-12T16:47:32.233Z,7.27
2019-02-12T16:50:02.172Z,7.41
2019-02-12T16:52:32.350Z,7.07
2019-02-12T16:55:02.390Z,7.32
2019-02-12T16:57:32.284Z,6.81
2019-02-12T17:00:02.250Z,7.03
2019-02-12T17:02:32.333Z,6.97
2019-02-12T17:05:02.371Z,7.22
2019-02-12T17:07:32.462Z,6.92
2019-02-12T17:10:02.793Z,7.18
2019-02-12T17:12:32.938Z,6.86
2019-02-12T17:15:03.622Z,7.05
2019-02-12T17:17:33.692Z,6.98
2019-02-12T17:20:03.696Z,6.71
2019-02-12T17:22:33.943Z,6.78
2019-02-12T17:25:04.397Z,6.55
2019-02-12T17:27:34.399Z,6.58
2019-02-12T17:30:04.690Z,6.46
2019-02-12T17:32:34.632Z,6.66
2019-02-12T17:35:05.569Z,6.54
2019-02-12T17:37:35.933Z,6.69
2019-02-12T17:40:06.759Z,6.67
2019-02-12T17:42:37.292Z,6.51
2019-02-12T17:45:09.441Z,6.83
2019-02-12T17:47:39.385Z,6.92
2019-02-12T17:50:10.850Z,6.99
2019-02-12T17:52:41.143Z,7.07
2019-02-12T17:55:11.313Z,7.00
2019-02-12T17:57:41.381Z,6.97
2019-02-12T18:00:16.301Z,6.76
2019-02-12T18:02:46.470Z,6.97
2019-02-12T18:05:16.988Z,7.11
2019-02-12T18:07:46.902Z,7.04
2019-02-12T18:10:16.888Z,7.16
2019-02-12T18:12:46.959Z,7.13
2019-02-12T18:15:17.126Z,7.02
2019-02-12T18:17:47.365Z,7.19
2019-02-12T18:20:17.530Z,7.27
2019-02-12T18:22:48.725Z,7.23
2019-02-12T18:25:18.768Z,7.26
2019-02-12T18:27:48.807Z,7.27
2019-02-12T18:30:18.953Z,7.19
2019-02-12T18:32:49.013Z,7.20
2019-02-12T18:35:19.006Z,7.29
2019-02-12T18:37:48.950Z,7.21
2019-02-12T18:40:18.971Z,7.18
2019-02-12T18:42:48.923Z,7.22
2019-02-12T18:45:19.183Z,7.39
2019-02-12T18:47:49.225Z,7.34
2019-02-12T18:50:19.780Z,7.36
2019-02-12T18:52:51.762Z,7.24
2019-02-12T18:55:21.785Z,7.05
2019-02-12T18:57:52.235Z,7.12
2019-02-12T19:00:24.633Z,7.23
2019-02-12T19:02:54.650Z,7.27
2019-02-12T19:05:25.054Z,7.27
2019-02-12T19:07:55.042Z,7.44
2019-02-12T19:10:25.121Z,7.36
2019-02-12T19:12:55.189Z,7.55
2019-02-12T19:15:25.350Z,7.51
2019-02-12T19:18:04.969Z,7.49
2019-02-12T19:20:37.558Z,7.47
2019-02-12T19:23:08.060Z,7.43
2019-02-12T19:25:38.033Z,7.43
2019-02-12T19:28:08.215Z,7.47
2019-02-12T19:30:38.291Z,7.34
2019-02-12T19:33:08.227Z,7.44
2019-02-12T19:35:38.298Z,7.40
2019-02-12T19:38:08.264Z,7.47
2019-02-12T19:40:38.340Z,7.37
2019-02-12T19:43:08.411Z,7.36
2019-02-12T19:45:38.813Z,7.18
2019-02-12T19:48:09.241Z,7.13
2019-02-12T19:50:39.527Z,7.30
2019-02-12T19:53:17.435Z,7.17
2019-02-12T19:55:47.516Z,7.23
2019-02-12T19:58:17.501Z,7.33
2019-02-12T20:00:47.811Z,7.28
2019-02-12T20:03:17.713Z,7.10
2019-02-12T20:05:47.719Z,7.24
2019-02-12T20:08:17.720Z,7.24
2019-02-12T20:10:47.882Z,7.13
2019-02-12T20:13:17.903Z,7.26
2019-02-12T20:15:47.831Z,6.72
2019-02-12T20:18:17.755Z,6.50
2019-02-12T20:20:47.844Z,6.51
2019-02-12T20:23:18.176Z,6.77
2019-02-12T20:25:48.126Z,7.09
2019-02-12T20:28:18.222Z,7.22
2019-02-12T20:30:50.719Z,7.32
2019-02-12T20:33:20.707Z,7.31
2019-02-12T20:35:50.665Z,7.34
2019-02-12T20:38:20.958Z,7.19
2019-02-12T20:40:51.754Z,5.66
2019-02-12T20:43:21.915Z,5.76
2019-02-12T20:45:51.934Z,6.69
2019-02-12T20:48:21.914Z,7.30
2019-02-12T20:50:51.907Z,7.53
2019-02-12T20:53:21.835Z,6.06
2019-02-12T20:55:52.303Z,6.44
2019-02-12T20:58:22.257Z,6.75
2019-02-12T21:00:52.191Z,6.68
2019-02-12T21:03:22.243Z,6.02
2019-02-12T21:05:52.264Z,6.68
2019-02-12T21:08:22.262Z,7.48
2019-02-12T21:10:54.619Z,6.91
2019-02-12T21:13:24.648Z,6.37
2019-02-12T21:15:54.748Z,6.38
2019-02-12T21:18:24.988Z,5.73
2019-02-12T21:20:55.286Z,6.21
2019-02-12T21:23:25.936Z,6.46
2019-02-12T21:25:56.046Z,7.16
2019-02-12T21:28:26.129Z,7.44
2019-02-12T21:30:56.806Z,7.18
2019-02-12T21:33:26.745Z,6.77
2019-02-12T21:35:57.064Z,7.31
2019-02-12T21:38:27.248Z,7.43
2019-02-12T21:40:57.321Z,7.49
2019-02-12T21:43:27.312Z,7.54
2019-02-12T21:45:57.331Z,7.32
2019-02-12T21:48:27.355Z,7.39
2019-02-12T21:50:57.471Z,7.39
2019-02-12T21:53:28.099Z,7.52
2019-02-12T21:55:58.781Z,7.51
2019-02-12T21:58:28.748Z,7.66
2019-02-12T22:00:58.968Z,7.69
2019-02-12T22:03:28.886Z,7.60
2019-02-12T22:05:58.907Z,7.63
2019-02-12T22:08:28.881Z,7.24
2019-02-12T22:10:59.174Z,7.56
2019-02-12T22:13:29.381Z,7.58
2019-02-12T22:15:59.535Z,7.70
2019-02-12T22:18:29.719Z,7.69
2019-02-12T22:20:59.775Z,7.66
2019-02-12T22:23:29.758Z,7.70
2019-02-12T22:26:00.076Z,7.62
2019-02-12T22:28:30.127Z,7.69
2019-02-12T22:31:00.946Z,7.74
2019-02-12T22:33:31.277Z,7.75
2019-02-12T22:36:01.392Z,7.68
2019-02-12T22:38:31.547Z,7.43
2019-02-12T22:41:01.576Z,7.69
2019-02-12T22:43:31.558Z,7.47
2019-02-12T22:46:01.760Z,8.60
2019-02-12T22:48:31.775Z,8.09
2019-02-12T22:51:01.841Z,8.06
2019-02-12T22:53:31.808Z,7.61
2019-02-12T22:56:02.183Z,7.85
2019-02-12T22:58:32.278Z,7.70
2019-02-12T23:01:08.202Z,7.69
2019-02-12T23:03:38.978Z,7.72
2019-02-12T23:06:09.034Z,7.78
2019-02-12T23:08:39.064Z,7.85
2019-02-12T23:11:09.320Z,7.64
2019-02-12T23:13:39.813Z,7.82
2019-02-12T23:16:09.908Z,7.70
2019-02-12T23:18:39.947Z,7.91
2019-02-12T23:21:10.313Z,7.87
2019-02-12T23:23:40.267Z,7.75
2019-02-12T23:26:10.190Z,7.51
2019-02-12T23:28:40.143Z,7.98
2019-02-12T23:31:10.225Z,7.84
2019-02-12T23:33:40.499Z,8.00
2019-02-12T23:36:10.611Z,8.06
2019-02-12T23:38:40.583Z,7.82
2019-02-12T23:41:10.866Z,8.01
2019-02-12T23:43:40.811Z,7.33
2019-02-12T23:46:10.854Z,7.84
2019-02-12T23:48:40.808Z,7.86
2019-02-12T23:51:11.135Z,7.95
2019-02-12T23:53:41.392Z,8.00
2019-02-12T23:56:12.235Z,7.90
2019-02-12T23:58:42.245Z,7.83
